SBYC BurgeeSandy Bay Yacht Club
Weather Center


Nearby METAR Reports

Nearby METAR Reports

 

KBVY - Beverly, Massachusetts, USA
Distance from station: WSW 16mi, 26km
Updated: Mon, 18-Nov-2019 10:53pm EST
Overcast
Overcast
 Wind from N
Wind: N 8 mph , 13 km/h
Temperature: 39°F , 4°C
Wind Chill: 33°F , 1°C
Dew Point: 36°F , 2°C
Humidity: 87%
Barometer: 29.64 inHg , 1003.7 hPa
Clouds: Overcast
Visibility: 8 miles , 13 km
Cloud details: Overcast 500 ft
2019/11/19 03:53 KBVY 190353Z AUTO 36007KT 8SM OVC005 04/02 A2964 RMK AO2 CIG 004V007 SLP034 T00390022
KLWM - Lawrence, Massachusetts, USA
Distance from station: W 27mi, 43km
Updated: Mon, 18-Nov-2019 10:54pm EST
Overcast
Overcast
 Wind from N
Wind: N 8 mph , 13 km/h
Temperature: 39°F , 4°C
Wind Chill: 33°F , 1°C
Dew Point: 37°F , 3°C
Humidity: 93%
Barometer: 29.67 inHg , 1004.7 hPa
Clouds: Overcast
Visibility: 10 miles , 16 km
Cloud details: Overcast 600 ft
2019/11/19 03:54 KLWM 190354Z AUTO 35007KT 10SM OVC006 04/03 A2967 RMK AO2 RAE14 CIG 004V008 SLP050 P0001 T00390028
 
KBOS - Boston, Massachusetts, USA
Distance from station: SW 29mi, 46km
Updated: Mon, 18-Nov-2019 10:54pm EST
Overcast
Overcast
 Wind from N
Wind: N 12 mph , 19 km/h
Temperature: 41°F , 5°C
Wind Chill: 34°F , 1°C
Dew Point: 36°F , 2°C
Humidity: 81%
Barometer: 29.65 inHg , 1004.1 hPa
Clouds: Overcast
Visibility: 10 miles , 16 km
Cloud details: Overcast 900 ft
2019/11/19 03:54 KBOS 190354Z 35010KT 10SM OVC009 05/02 A2965 RMK AO2 SLP038 T00500022
KPSM - Portsmouth/Pease, New Hampshire, USA
Distance from station: NNW 30mi, 48km
Updated: Mon, 18-Nov-2019 11:11pm EST
Light rain, Mist, Overcast
Light rain, Mist, Overcast
 Wind from N
Wind: N 8 mph , 13 km/h
Temperature: 37°F , 3°C
Wind Chill: 31°F , -1°C
Dew Point: 36°F , 2°C
Humidity: 93%
Barometer: 29.65 inHg , 1004.1 hPa
Summary: Light rain, Mist
Clouds: Overcast
Visibility: 5 miles , 8 km
Cloud details: Mostly Cloudy 700 ft
Overcast 1600 ft
2019/11/19 04:11 KPSM 190411Z 36007KT 5SM -RA BR BKN007 OVC016 03/02 A2965 RMK AO2A SLP044
 
KMHT - Manchester, New Hampshire, USA
Distance from station: WNW 46mi, 73km
Updated: Mon, 18-Nov-2019 11:36pm EST
Overcast
Overcast
 Wind from N
Wind: N 7 mph , 11 km/h
Temperature: 39°F , 4°C
Wind Chill: 34°F , 1°C
Dew Point: 37°F , 3°C
Humidity: 93%
Barometer: 29.63 inHg , 1003.4 hPa
Clouds: Overcast
Visibility: 10 miles , 16 km
Cloud details: Partly Cloudy 400 ft
Overcast 1300 ft
2019/11/19 04:36 KMHT 190436Z 36006KT 10SM SCT004 OVC013 04/03 A2963 RMK AO2 RAE22 P0000 T00390028
KPVC - Provincetown, Massachusetts, USA
Distance from station: SSE 46mi, 73km
Updated: Mon, 18-Nov-2019 10:56pm EST
Light rain, Mist, Overcast
Light rain, Mist, Overcast
 Wind from N
Wind: N 20 mph , 31 km/h, Gust: 26 mph , 43 km/h
Temperature: 45°F , 7°C
Wind Chill: 37°F , 3°C
Dew Point: 43°F , 6°C
Humidity: 93%
Barometer: 29.60 inHg , 1002.4 hPa
Summary: Light rain, Mist
Clouds: Overcast
Visibility: 4 miles , 6 km
Cloud details: Overcast 500 ft
2019/11/19 03:56 KPVC 190356Z AUTO 01017G23KT 4SM -RA BR OVC005 07/06 A2960 RMK AO2 SLP021 P0000 T00670061
 
KDAW - Rochester, New Hampshire, USA
Distance from station: NNW 46mi, 74km
Updated: Mon, 18-Nov-2019 10:51pm EST
Light rain, Overcast
Light rain, Overcast
 Wind from N
Wind: N 3 mph , 6 km/h
Temperature: 37°F , 3°C
Dew Point: 36°F , 2°C
Humidity: 93%
Barometer: 29.65 inHg , 1004.1 hPa
Summary: Light Rain
Clouds: Overcast
Visibility: 8 miles , 13 km
Cloud details: Overcast 1800 ft
2019/11/19 03:51 KDAW 190351Z AUTO 36003KT 8SM -RA OVC018 03/02 A2965 RMK AO2 SLP040 P0003 T00330022
KASH - Nashua/Boire Fld, New Hampshire, USA
Distance from station: W 47mi, 75km
Updated: Mon, 18-Nov-2019 11:27pm EST
Light rain, Overcast
Light rain, Overcast
 Wind from NW
Wind: NW 7 mph , 11 km/h
Temperature: 39°F , 4°C
Wind Chill: 34°F , 1°C
Dew Point: 39°F , 4°C
Humidity: 100%
Barometer: 29.65 inHg , 1004.1 hPa
Summary: Light Rain
Clouds: Overcast
Visibility: 10 miles , 16 km
Cloud details: Partly Cloudy 900 ft
Mostly Cloudy 1700 ft
Overcast 2200 ft
2019/11/19 04:27 KASH 190427Z AUTO 31006KT 10SM -RA SCT009 BKN017 OVC022 04/04 A2965 RMK AO2 P0001
 
KSFM - Sanford Muni, Maine, USA
Distance from station: N 50mi, 81km
Updated: Mon, 18-Nov-2019 10:56pm EST
Light rain, Overcast
Light rain, Overcast
 Wind from N
Wind: N 8 mph , 13 km/h
Temperature: 37°F , 3°C
Wind Chill: 31°F , -1°C
Dew Point: 36°F , 2°C
Humidity: 93%
Barometer: 29.67 inHg , 1004.7 hPa
Summary: Light Rain
Clouds: Overcast
Visibility: 7 miles , 11 km
Cloud details: Overcast 1800 ft
2019/11/19 03:56 KSFM 190356Z AUTO 01007KT 7SM -RA OVC018 03/02 A2967 RMK AO2 SLP051 P0000 T00280022 400281011

Metar display script from Saratoga-Weather.org

 



home

Copyright © Sandy Bay Yacht Club. All rights reserved.